Time;durP1;ratioP1;P1;durP2;ratioP2;P2;SDS_P1;SDS_P2;PMS_P1;PMS_P2;Temp;Humidity;BMP_temperature;BMP_pressure;BME280_temperature;BME280_humidity;BME280_pressure;Samples;Min_cycle;Max_cycle;Signal;HPM_P1;HPM_P2
2024/01/22 00:01:41;;;;;;;9.70;4.13;;;;;;;;;;5050945;28;20029;-65
2024/01/22 00:04:07;;;;;;;7.07;4.13;;;;;;;;;;5050446;28;20059;-65
2024/01/22 00:06:36;;;;;;;11.10;5.03;;;;;;;;;;5051949;28;20052;-65
2024/01/22 00:09:02;;;;;;;9.47;4.53;;;;;;;;;;5050261;28;20084;-65
2024/01/22 00:11:30;;;;;;;10.73;4.50;;;;;;;;;;5051150;28;20041;-65
2024/01/22 00:13:56;;;;;;;8.83;4.10;;;;;;;;;;5050045;28;20057;-65
2024/01/22 00:16:22;;;;;;;7.70;4.30;;;;;;;;;;5050816;28;20045;-65
2024/01/22 00:18:49;;;;;;;8.73;4.03;;;;;;;;;;5051230;28;20131;-65
2024/01/22 00:21:15;;;;;;;10.27;5.17;;;;;;;;;;5049926;28;20053;-65
2024/01/22 00:23:41;;;;;;;8.60;4.17;;;;;;;;;;5049402;28;20049;-65
2024/01/22 00:26:09;;;;;;;12.77;4.90;;;;;;;;;;5049227;28;20496;-65
2024/01/22 00:28:35;;;;;;;15.30;5.47;;;;;;;;;;5049449;28;20060;-65
2024/01/22 00:31:01;;;;;;;15.40;5.57;;;;;;;;;;5049372;28;20045;-65
2024/01/22 00:33:27;;;;;;;10.20;5.57;;;;;;;;;;5047958;28;20487;-65
2024/01/22 00:35:53;;;;;;;9.50;5.43;;;;;;;;;;5049620;28;20064;-65
2024/01/22 00:38:19;;;;;;;10.63;5.50;;;;;;;;;;5050826;28;20091;-65
2024/01/22 00:40:45;;;;;;;9.47;5.80;;;;;;;;;;5050495;28;20471;-65
2024/01/22 00:43:11;;;;;;;11.10;5.20;;;;;;;;;;5050722;28;20052;-65
2024/01/22 00:45:38;;;;;;;9.57;3.97;;;;;;;;;;5050262;28;20419;-65
2024/01/22 00:48:04;;;;;;;10.03;4.67;;;;;;;;;;5050590;28;20099;-65
2024/01/22 00:50:30;;;;;;;11.27;4.30;;;;;;;;;;5050894;28;21035;-65
2024/01/22 00:52:56;;;;;;;10.73;4.90;;;;;;;;;;5050375;28;20518;-65
2024/01/22 00:55:22;;;;;;;5.40;3.63;;;;;;;;;;5050798;28;20103;-65
2024/01/22 00:57:48;;;;;;;9.87;3.97;;;;;;;;;;5050119;28;20091;-65
2024/01/22 01:00:15;;;;;;;7.50;4.03;;;;;;;;;;5050244;28;20044;-65
2024/01/22 01:02:41;;;;;;;7.07;3.27;;;;;;;;;;5050902;28;20053;-65
2024/01/22 01:05:07;;;;;;;6.20;3.50;;;;;;;;;;5050399;28;20049;-65
2024/01/22 01:07:33;;;;;;;7.53;3.37;;;;;;;;;;5050020;28;20048;-65
2024/01/22 01:09:59;;;;;;;6.53;3.57;;;;;;;;;;5050405;28;20049;-65
2024/01/22 01:12:25;;;;;;;7.80;3.77;;;;;;;;;;5049585;28;20036;-65
2024/01/22 01:14:51;;;;;;;8.10;4.07;;;;;;;;;;5049994;28;20049;-65
2024/01/22 01:17:18;;;;;;;8.20;3.53;;;;;;;;;;5050236;28;20528;-65
2024/01/22 01:19:44;;;;;;;7.43;3.70;;;;;;;;;;5050423;28;20048;-65
2024/01/22 01:22:10;;;;;;;8.60;4.20;;;;;;;;;;5050036;28;20107;-65
2024/01/22 01:24:36;;;;;;;6.47;3.37;;;;;;;;;;5050206;28;20435;-65
2024/01/22 01:27:02;;;;;;;4.53;3.10;;;;;;;;;;5049797;28;20048;-65
2024/01/22 01:29:28;;;;;;;9.90;3.60;;;;;;;;;;5049992;28;20045;-66
2024/01/22 01:31:54;;;;;;;7.30;3.70;;;;;;;;;;5049136;28;20045;-66
2024/01/22 01:34:20;;;;;;;11.60;4.63;;;;;;;;;;5048669;28;20065;-66
2024/01/22 01:36:46;;;;;;;6.80;4.07;;;;;;;;;;5049720;28;20224;-66
2024/01/22 01:39:13;;;;;;;8.77;4.80;;;;;;;;;;5049855;28;20542;-66
2024/01/22 01:41:39;;;;;;;10.00;3.87;;;;;;;;;;5049595;28;20052;-66
2024/01/22 01:44:05;;;;;;;8.87;4.47;;;;;;;;;;5049371;28;20155;-66
2024/01/22 01:46:31;;;;;;;12.53;5.83;;;;;;;;;;5049037;28;20411;-66
2024/01/22 01:48:57;;;;;;;7.40;5.13;;;;;;;;;;5049567;28;20049;-66
2024/01/22 01:51:24;;;;;;;14.93;5.70;;;;;;;;;;5049712;28;20449;-67
2024/01/22 01:53:50;;;;;;;17.90;6.63;;;;;;;;;;5048948;28;20051;-66
2024/01/22 01:56:17;;;;;;;8.50;5.20;;;;;;;;;;5049559;28;20562;-67
2024/01/22 01:58:43;;;;;;;10.93;5.23;;;;;;;;;;5049438;28;20041;-67
2024/01/22 02:01:09;;;;;;;14.53;6.30;;;;;;;;;;5049089;28;20057;-67
2024/01/22 02:03:35;;;;;;;14.00;6.40;;;;;;;;;;5049822;28;20053;-66
2024/01/22 02:06:01;;;;;;;13.00;7.63;;;;;;;;;;5049414;28;20051;-66
2024/01/22 02:08:27;;;;;;;16.97;7.37;;;;;;;;;;5049259;28;20053;-66
2024/01/22 02:10:53;;;;;;;15.80;6.70;;;;;;;;;;5049414;28;20099;-66
2024/01/22 02:13:19;;;;;;;13.93;8.20;;;;;;;;;;5049366;28;20138;-65
2024/01/22 02:15:45;;;;;;;17.70;8.50;;;;;;;;;;5049389;28;20049;-65
2024/01/22 02:18:11;;;;;;;19.63;8.30;;;;;;;;;;5049417;28;20075;-66
2024/01/22 02:20:37;;;;;;;16.23;8.00;;;;;;;;;;5044099;28;20864;-65
2024/01/22 02:23:04;;;;;;;12.73;8.40;;;;;;;;;;5048184;28;20049;-65
2024/01/22 02:25:31;;;;;;;10.07;6.70;;;;;;;;;;5048453;28;20128;-66
2024/01/22 02:27:57;;;;;;;10.90;7.27;;;;;;;;;;5048103;28;20044;-65
2024/01/22 02:30:23;;;;;;;11.83;7.67;;;;;;;;;;5047275;28;20376;-65
2024/01/22 02:32:49;;;;;;;17.57;8.10;;;;;;;;;;5048973;28;20037;-66
2024/01/22 02:35:15;;;;;;;12.97;8.20;;;;;;;;;;5047675;28;20056;-66
2024/01/22 02:37:41;;;;;;;26.63;8.40;;;;;;;;;;5047862;28;20045;-66
2024/01/22 02:40:07;;;;;;;17.03;10.13;;;;;;;;;;5048801;28;20128;-65
2024/01/22 02:42:33;;;;;;;19.27;8.27;;;;;;;;;;5048548;28;20495;-65
2024/01/22 02:45:00;;;;;;;14.73;8.90;;;;;;;;;;5048179;28;20247;-65
2024/01/22 02:47:26;;;;;;;13.27;7.23;;;;;;;;;;5048792;28;20053;-65
2024/01/22 02:49:52;;;;;;;13.50;7.83;;;;;;;;;;5048288;28;20458;-65
2024/01/22 02:52:18;;;;;;;10.30;6.73;;;;;;;;;;5047580;28;20511;-65
2024/01/22 02:54:44;;;;;;;17.07;8.63;;;;;;;;;;5047572;28;20048;-65
2024/01/22 02:57:11;;;;;;;21.57;7.57;;;;;;;;;;5048518;28;20049;-65
2024/01/22 02:59:37;;;;;;;18.30;8.43;;;;;;;;;;5047983;28;20102;-65
2024/01/22 03:02:03;;;;;;;14.37;7.50;;;;;;;;;;5048632;28;20040;-65
2024/01/22 03:04:30;;;;;;;16.70;8.80;;;;;;;;;;5048690;28;20128;-65
2024/01/22 03:06:56;;;;;;;13.90;7.30;;;;;;;;;;5048371;28;20415;-65
2024/01/22 03:09:22;;;;;;;15.00;9.07;;;;;;;;;;5048465;28;20045;-65
2024/01/22 03:11:48;;;;;;;12.03;7.77;;;;;;;;;;5048827;28;20045;-65
2024/01/22 03:14:14;;;;;;;10.23;7.83;;;;;;;;;;5046776;28;20044;-65
2024/01/22 03:16:40;;;;;;;12.10;7.73;;;;;;;;;;5048443;28;20043;-66
2024/01/22 03:19:06;;;;;;;12.37;7.27;;;;;;;;;;5048294;28;20045;-65
2024/01/22 03:21:32;;;;;;;13.70;8.37;;;;;;;;;;5048370;28;20529;-65
2024/01/22 03:23:58;;;;;;;12.43;8.00;;;;;;;;;;5047102;28;20156;-65
2024/01/22 03:26:24;;;;;;;13.77;8.07;;;;;;;;;;5048114;28;20092;-65
2024/01/22 03:28:51;;;;;;;17.70;10.13;;;;;;;;;;5048201;28;20048;-65
2024/01/22 03:31:27;;;;;;;11.43;6.77;;;;;;;;;;5048276;28;20037;-65
2024/01/22 03:33:53;;;;;;;11.97;7.10;;;;;;;;;;5047016;28;20048;-65
2024/01/22 03:36:19;;;;;;;11.23;7.23;;;;;;;;;;5047775;28;20684;-65
2024/01/22 03:38:45;;;;;;;14.27;7.87;;;;;;;;;;5048113;28;20045;-65
2024/01/22 03:41:12;;;;;;;18.43;8.03;;;;;;;;;;5048041;28;20045;-65
2024/01/22 03:43:38;;;;;;;10.73;6.70;;;;;;;;;;5048086;28;20041;-65
2024/01/22 03:46:04;;;;;;;11.53;8.63;;;;;;;;;;5047269;28;20114;-65
2024/01/22 03:48:30;;;;;;;16.00;9.97;;;;;;;;;;5047996;28;20056;-65
2024/01/22 03:50:56;;;;;;;14.20;9.67;;;;;;;;;;5047855;28;20041;-65
2024/01/22 03:53:22;;;;;;;10.27;7.27;;;;;;;;;;5046660;28;20091;-65
2024/01/22 03:55:48;;;;;;;13.17;7.27;;;;;;;;;;5047582;28;20045;-65
2024/01/22 03:58:14;;;;;;;14.33;9.40;;;;;;;;;;5047434;28;20037;-65
2024/01/22 04:00:40;;;;;;;20.83;8.50;;;;;;;;;;5047132;28;20462;-66
2024/01/22 04:03:08;;;;;;;11.87;7.33;;;;;;;;;;5047867;28;20083;-65
2024/01/22 04:05:34;;;;;;;10.50;7.20;;;;;;;;;;5048168;28;20049;-65
2024/01/22 04:08:00;;;;;;;13.90;8.47;;;;;;;;;;5047809;28;20422;-65
2024/01/22 04:10:26;;;;;;;11.23;7.87;;;;;;;;;;5046632;28;20045;-65
2024/01/22 04:12:54;;;;;;;13.87;8.57;;;;;;;;;;5047072;28;20040;-65
2024/01/22 04:15:20;;;;;;;16.03;8.70;;;;;;;;;;5047721;28;20559;-65
2024/01/22 04:17:46;;;;;;;12.40;7.73;;;;;;;;;;5047628;28;20056;-65
2024/01/22 04:20:13;;;;;;;9.70;7.20;;;;;;;;;;5047765;28;20045;-65
2024/01/22 04:22:39;;;;;;;10.83;7.60;;;;;;;;;;5047048;28;20506;-65
2024/01/22 04:25:05;;;;;;;15.60;8.30;;;;;;;;;;5048772;28;20091;-65
2024/01/22 04:27:31;;;;;;;11.57;7.83;;;;;;;;;;5051368;28;20495;-65
2024/01/22 04:29:57;;;;;;;12.43;7.77;;;;;;;;;;5051107;28;20052;-65
2024/01/22 04:32:23;;;;;;;11.03;7.67;;;;;;;;;;5050527;28;20143;-65
2024/01/22 04:34:50;;;;;;;18.33;10.17;;;;;;;;;;5051187;28;20079;-65
2024/01/22 04:37:16;;;;;;;9.23;6.13;;;;;;;;;;5050783;28;20573;-64
2024/01/22 04:39:43;;;;;;;8.63;5.80;;;;;;;;;;5051301;28;20514;-65
2024/01/22 04:42:09;;;;;;;10.13;6.23;;;;;;;;;;5050884;28;20095;-65
2024/01/22 04:44:35;;;;;;;8.37;5.47;;;;;;;;;;5050950;28;20060;-64
2024/01/22 04:47:01;;;;;;;9.53;6.53;;;;;;;;;;5050496;28;20049;-65
2024/01/22 04:49:27;;;;;;;10.23;6.93;;;;;;;;;;5050917;28;20045;-65
2024/01/22 04:51:53;;;;;;;8.60;6.57;;;;;;;;;;5050343;28;20131;-65
2024/01/22 04:54:20;;;;;;;9.40;6.87;;;;;;;;;;5050894;28;20088;-65
2024/01/22 04:56:46;;;;;;;8.93;6.40;;;;;;;;;;5050759;28;20131;-65
2024/01/22 04:59:12;;;;;;;8.63;5.23;;;;;;;;;;5049824;28;20530;-65
2024/01/22 05:01:38;;;;;;;9.53;5.17;;;;;;;;;;5050199;28;20107;-65
2024/01/22 05:04:05;;;;;;;8.40;5.33;;;;;;;;;;5050941;28;20068;-65
2024/01/22 05:06:31;;;;;;;6.90;4.17;;;;;;;;;;5050815;28;20049;-65
2024/01/22 05:08:57;;;;;;;5.90;4.40;;;;;;;;;;5050006;28;20095;-65
2024/01/22 05:11:23;;;;;;;7.00;4.13;;;;;;;;;;5050659;28;20049;-65
2024/01/22 05:13:53;;;;;;;7.77;4.00;;;;;;;;;;5050659;28;20072;-65
2024/01/22 05:16:20;;;;;;;8.43;3.83;;;;;;;;;;5050746;28;20106;-65
2024/01/22 05:18:47;;;;;;;6.87;3.87;;;;;;;;;;5050074;28;20088;-65
2024/01/22 05:21:13;;;;;;;8.23;3.60;;;;;;;;;;5050085;28;20041;-65
2024/01/22 05:23:39;;;;;;;6.80;3.73;;;;;;;;;;5049488;28;20410;-65
2024/01/22 05:26:06;;;;;;;5.87;3.70;;;;;;;;;;5050032;28;20060;-65
2024/01/22 05:28:32;;;;;;;6.03;3.77;;;;;;;;;;5049992;28;20098;-65
2024/01/22 05:30:58;;;;;;;5.37;3.20;;;;;;;;;;5048566;28;20056;-65
2024/01/22 05:33:24;;;;;;;5.00;2.80;;;;;;;;;;5050285;28;20087;-65
2024/01/22 05:35:50;;;;;;;4.10;2.57;;;;;;;;;;5049727;28;20052;-65
2024/01/22 05:38:16;;;;;;;4.53;2.70;;;;;;;;;;5049178;28;20577;-65
2024/01/22 05:40:42;;;;;;;6.23;2.10;;;;;;;;;;5050116;28;20037;-65
2024/01/22 05:43:08;;;;;;;4.13;2.33;;;;;;;;;;5049431;28;20076;-65
2024/01/22 05:45:34;;;;;;;4.83;2.77;;;;;;;;;;5049929;28;20484;-65
2024/01/22 05:48:00;;;;;;;5.53;1.80;;;;;;;;;;5049627;28;20133;-64
2024/01/22 05:50:26;;;;;;;2.90;1.57;;;;;;;;;;5049801;28;20495;-65
2024/01/22 05:52:53;;;;;;;5.70;1.80;;;;;;;;;;5048165;28;20049;-65
2024/01/22 05:55:19;;;;;;;4.00;1.67;;;;;;;;;;5049385;28;20542;-65
2024/01/22 05:57:45;;;;;;;6.30;2.47;;;;;;;;;;5049869;28;20136;-65
2024/01/22 06:00:13;;;;;;;3.80;1.80;;;;;;;;;;5042734;28;20522;-65
2024/01/22 06:02:43;;;;;;;4.13;1.90;;;;;;;;;;5047224;28;20400;-65
2024/01/22 06:05:12;;;;;;;4.50;1.63;;;;;;;;;;5046932;28;20046;-65
2024/01/22 06:07:38;;;;;;;4.90;2.20;;;;;;;;;;5048870;28;20041;-65
2024/01/22 06:10:05;;;;;;;5.33;1.60;;;;;;;;;;5050231;28;20048;-65
2024/01/22 06:12:31;;;;;;;6.40;1.70;;;;;;;;;;5049716;28;20141;-65
2024/01/22 06:14:57;;;;;;;7.80;1.77;;;;;;;;;;5049429;28;20423;-65
2024/01/22 06:17:24;;;;;;;4.00;1.40;;;;;;;;;;5049954;28;20040;-65
2024/01/22 06:19:49;;;;;;;4.30;1.73;;;;;;;;;;5049371;28;20150;-65
2024/01/22 06:22:17;;;;;;;6.60;2.03;;;;;;;;;;5049379;28;20103;-65
2024/01/22 06:24:44;;;;;;;4.73;2.00;;;;;;;;;;5049541;28;20045;-65
2024/01/22 06:27:10;;;;;;;4.43;1.83;;;;;;;;;;5050024;28;20049;-65
2024/01/22 06:29:36;;;;;;;4.07;1.90;;;;;;;;;;5049342;28;20113;-65
2024/01/22 06:32:03;;;;;;;8.37;2.20;;;;;;;;;;5051132;28;20048;-65
2024/01/22 06:34:29;;;;;;;5.63;2.60;;;;;;;;;;5052902;28;20052;-65
2024/01/22 06:36:55;;;;;;;13.33;2.10;;;;;;;;;;5048676;28;20041;-66
2024/01/22 06:39:21;;;;;;;4.33;2.30;;;;;;;;;;5047823;28;20045;-66
2024/01/22 06:41:47;;;;;;;5.70;2.10;;;;;;;;;;5048488;28;20041;-65
2024/01/22 06:44:13;;;;;;;8.07;3.70;;;;;;;;;;5048570;28;20114;-65
2024/01/22 06:46:39;;;;;;;8.47;3.27;;;;;;;;;;5048589;28;20555;-65
2024/01/22 06:49:06;;;;;;;12.33;3.90;;;;;;;;;;5046637;28;20163;-65
2024/01/22 06:51:32;;;;;;;16.03;2.97;;;;;;;;;;5048877;28;20143;-65
2024/01/22 06:53:58;;;;;;;17.20;3.90;;;;;;;;;;5048284;28;20567;-65
2024/01/22 06:56:24;;;;;;;20.70;3.97;;;;;;;;;;5039877;28;20042;-65
2024/01/22 06:58:50;;;;;;;16.33;5.17;;;;;;;;;;5027162;28;20054;-65
2024/01/22 07:01:16;;;;;;;13.20;3.37;;;;;;;;;;5035700;28;20484;-65
2024/01/22 07:03:42;;;;;;;17.83;3.23;;;;;;;;;;5048308;28;20031;-65
2024/01/22 07:06:08;;;;;;;12.37;3.97;;;;;;;;;;5047761;28;20050;-65
2024/01/22 07:08:34;;;;;;;12.53;2.93;;;;;;;;;;5047686;28;20057;-64
2024/01/22 07:11:00;;;;;;;18.63;3.33;;;;;;;;;;5048394;28;20045;-65
2024/01/22 07:13:28;;;;;;;17.57;3.90;;;;;;;;;;5048180;28;20627;-65
2024/01/22 07:15:54;;;;;;;21.70;3.60;;;;;;;;;;5047901;28;20041;-65
2024/01/22 07:18:20;;;;;;;16.20;3.90;;;;;;;;;;5058327;28;20412;-65
2024/01/22 07:20:46;;;;;;;15.70;4.13;;;;;;;;;;5052633;28;20051;-65
2024/01/22 07:23:12;;;;;;;21.17;4.17;;;;;;;;;;5046839;28;20049;-65
2024/01/22 07:25:38;;;;;;;25.97;5.20;;;;;;;;;;5048555;28;20052;-64
2024/01/22 07:28:04;;;;;;;25.87;4.57;;;;;;;;;;5047426;28;20124;-65
2024/01/22 07:30:30;;;;;;;29.97;4.43;;;;;;;;;;5047133;28;20465;-65
2024/01/22 07:32:57;;;;;;;22.10;5.23;;;;;;;;;;5046845;28;20523;-64
2024/01/22 07:35:24;;;;;;;25.17;4.90;;;;;;;;;;5047664;28;20057;-65
2024/01/22 07:37:50;;;;;;;29.13;5.63;;;;;;;;;;5046468;28;20045;-65
2024/01/22 07:40:18;;;;;;;32.43;4.83;;;;;;;;;;5045122;28;20041;-65
2024/01/22 07:42:44;;;;;;;15.07;3.87;;;;;;;;;;5047998;28;20109;-65
2024/01/22 07:45:11;;;;;;;31.23;4.30;;;;;;;;;;5047045;28;20053;-64
2024/01/22 07:47:38;;;;;;;26.70;4.57;;;;;;;;;;5047227;28;20072;-65
2024/01/22 07:50:10;;;;;;;20.43;4.90;;;;;;;;;;5045939;28;20060;-65
2024/01/22 07:52:37;;;;;;;22.37;4.67;;;;;;;;;;5054282;28;20049;-65
2024/01/22 07:55:03;;;;;;;18.40;4.60;;;;;;;;;;5046814;28;20048;-65
2024/01/22 07:57:30;;;;;;;21.87;5.27;;;;;;;;;;5046438;28;20722;-65
2024/01/22 07:59:56;;;;;;;17.10;3.70;;;;;;;;;;5047917;28;20426;-65
2024/01/22 08:02:22;;;;;;;21.63;5.13;;;;;;;;;;5051341;28;20052;-65
2024/01/22 08:04:50;;;;;;;22.97;6.37;;;;;;;;;;5051404;28;20052;-65
2024/01/22 08:07:16;;;;;;;29.10;5.80;;;;;;;;;;5052242;28;20044;-66
2024/01/22 08:09:42;;;;;;;19.73;4.57;;;;;;;;;;5064163;28;20044;-65
2024/01/22 08:12:08;;;;;;;28.10;4.93;;;;;;;;;;5056177;28;20045;-65
2024/01/22 08:14:34;;;;;;;15.87;4.60;;;;;;;;;;5050916;28;20048;-64
2024/01/22 08:17:01;;;;;;;23.40;4.93;;;;;;;;;;5051184;28;20139;-65
2024/01/22 08:19:28;;;;;;;18.37;6.20;;;;;;;;;;5051797;28;20045;-65
2024/01/22 08:21:54;;;;;;;22.93;4.43;;;;;;;;;;5050917;28;20384;-65
2024/01/22 08:24:21;;;;;;;32.17;6.87;;;;;;;;;;5050503;28;20059;-65
2024/01/22 08:26:48;;;;;;;17.37;5.33;;;;;;;;;;5055888;28;20799;-65
2024/01/22 08:29:14;;;;;;;22.47;6.03;;;;;;;;;;5051382;28;20522;-65
2024/01/22 08:31:40;;;;;;;20.40;6.20;;;;;;;;;;5048005;28;20038;-65
2024/01/22 08:34:07;;;;;;;22.30;6.17;;;;;;;;;;5050544;28;20064;-65
2024/01/22 08:36:33;;;;;;;30.07;7.57;;;;;;;;;;5048958;28;20033;-66
2024/01/22 08:38:59;;;;;;;35.83;7.90;;;;;;;;;;5035883;28;20049;-65
2024/01/22 08:41:27;;;;;;;40.47;9.17;;;;;;;;;;5051580;28;20138;-66
2024/01/22 08:43:59;;;;;;;31.20;8.33;;;;;;;;;;5049682;28;20407;-65
2024/01/22 08:46:26;;;;;;;29.73;7.77;;;;;;;;;;5049257;28;20090;-65
2024/01/22 08:48:52;;;;;;;37.10;8.07;;;;;;;;;;5049034;28;20061;-65
2024/01/22 08:51:18;;;;;;;33.50;7.83;;;;;;;;;;5049732;28;20408;-66
2024/01/22 08:53:44;;;;;;;29.90;6.47;;;;;;;;;;5049269;28;20382;-66
2024/01/22 08:56:10;;;;;;;34.27;7.80;;;;;;;;;;5047044;28;20035;-65
2024/01/22 08:58:36;;;;;;;30.20;6.60;;;;;;;;;;5049887;28;20048;-66
2024/01/22 09:01:06;;;;;;;27.57;6.97;;;;;;;;;;5049467;28;20419;-66
2024/01/22 09:03:35;;;;;;;34.57;9.13;;;;;;;;;;5050371;28;20041;-65
2024/01/22 09:06:03;;;;;;;35.10;6.97;;;;;;;;;;5050344;28;20045;-65
2024/01/22 09:08:29;;;;;;;39.07;7.73;;;;;;;;;;5044440;28;20056;-65
2024/01/22 09:10:55;;;;;;;43.10;6.83;;;;;;;;;;5046350;28;20048;-65
2024/01/22 09:13:21;;;;;;;41.00;7.40;;;;;;;;;;5049930;28;20055;-65
2024/01/22 09:15:48;;;;;;;39.90;8.57;;;;;;;;;;5049848;28;20491;-65
2024/01/22 09:18:15;;;;;;;44.70;8.27;;;;;;;;;;5050038;28;20525;-65
2024/01/22 09:20:41;;;;;;;45.97;9.20;;;;;;;;;;5049082;28;20406;-65
2024/01/22 09:23:07;;;;;;;58.93;9.80;;;;;;;;;;5049850;28;20086;-65
2024/01/22 09:25:33;;;;;;;43.60;8.87;;;;;;;;;;5050430;28;20157;-65
2024/01/22 09:27:59;;;;;;;55.80;10.43;;;;;;;;;;5049760;28;20045;-65
2024/01/22 09:30:25;;;;;;;53.07;10.63;;;;;;;;;;5049798;28;22044;-65
2024/01/22 09:32:54;;;;;;;55.83;9.37;;;;;;;;;;5050357;28;20053;-65
2024/01/22 09:35:21;;;;;;;46.33;7.83;;;;;;;;;;5050318;28;20395;-65
2024/01/22 09:37:47;;;;;;;60.63;10.00;;;;;;;;;;5050099;28;20057;-65
2024/01/22 09:40:13;;;;;;;73.67;11.60;;;;;;;;;;5048674;28;20640;-65
2024/01/22 09:42:40;;;;;;;60.13;10.40;;;;;;;;;;5047749;28;20037;-64
2024/01/22 09:45:08;;;;;;;54.40;10.83;;;;;;;;;;5049720;28;20061;-65
2024/01/22 09:47:35;;;;;;;62.80;11.23;;;;;;;;;;5049912;28;20060;-65
2024/01/22 09:50:01;;;;;;;71.13;10.53;;;;;;;;;;5048078;28;20041;-65
2024/01/22 09:52:29;;;;;;;65.40;10.83;;;;;;;;;;5051479;28;20124;-65
2024/01/22 09:54:56;;;;;;;71.40;10.97;;;;;;;;;;5049728;28;20053;-65
2024/01/22 09:57:25;;;;;;;59.77;9.67;;;;;;;;;;5049162;28;20500;-65
2024/01/22 09:59:52;;;;;;;60.10;9.43;;;;;;;;;;5049254;28;20040;-65
2024/01/22 10:02:19;;;;;;;63.93;13.13;;;;;;;;;;5049076;28;20095;-65
2024/01/22 10:04:46;;;;;;;66.60;11.20;;;;;;;;;;5047266;28;20574;-64
2024/01/22 10:07:14;;;;;;;67.80;11.23;;;;;;;;;;5047868;28;20036;-65
2024/01/22 10:09:40;;;;;;;63.03;10.60;;;;;;;;;;5050045;28;20088;-65
2024/01/22 10:12:06;;;;;;;75.17;11.53;;;;;;;;;;5048818;28;20047;-64
2024/01/22 10:14:37;;;;;;;57.67;10.27;;;;;;;;;;5048478;28;20047;-64
2024/01/22 10:17:24;;;;;;;64.13;10.00;;;;;;;;;;5048508;28;20515;-64
2024/01/22 10:19:51;;;;;;;65.83;10.07;;;;;;;;;;5048725;28;20534;-64
2024/01/22 10:22:26;;;;;;;72.43;11.67;;;;;;;;;;5048855;28;20052;-64
2024/01/22 10:24:59;;;;;;;47.67;9.57;;;;;;;;;;5052641;28;20056;-65
2024/01/22 10:27:26;;;;;;;63.28;11.55;;;;;;;;;;5048514;28;20037;-64
2024/01/22 10:29:52;;;;;;;53.73;10.93;;;;;;;;;;5048202;28;20059;-65
2024/01/22 10:32:21;;;;;;;61.13;9.70;;;;;;;;;;5048151;28;20041;-65
2024/01/22 10:34:51;;;;;;;59.23;11.43;;;;;;;;;;5048296;28;20084;-64
2024/01/22 10:37:17;;;;;;;60.00;10.97;;;;;;;;;;5048406;28;20134;-64
2024/01/22 10:39:45;;;;;;;62.33;10.50;;;;;;;;;;5044781;28;20507;-65
2024/01/22 10:42:15;;;;;;;52.90;10.00;;;;;;;;;;5048512;28;20045;-64
2024/01/22 10:44:44;;;;;;;59.30;11.00;;;;;;;;;;5048096;28;20056;-65
2024/01/22 10:47:11;;;;;;;46.13;8.60;;;;;;;;;;5048439;28;20051;-65
2024/01/22 10:49:37;;;;;;;65.57;11.67;;;;;;;;;;5047858;28;20048;-64
2024/01/22 10:52:05;;;;;;;59.93;10.03;;;;;;;;;;5047215;28;20048;-64
2024/01/22 10:54:31;;;;;;;70.57;12.50;;;;;;;;;;5047843;28;20132;-64
2024/01/22 10:57:04;;;;;;;62.90;11.07;;;;;;;;;;5047876;28;20173;-64
2024/01/22 10:59:40;;;;;;;52.58;10.93;;;;;;;;;;5047724;28;20557;-64
2024/01/22 11:02:06;;;;;;;63.53;10.07;;;;;;;;;;5047082;28;20048;-64
2024/01/22 11:04:43;;;;;;;57.83;10.10;;;;;;;;;;5047650;28;20064;-64
2024/01/22 11:07:10;;;;;;;62.47;10.80;;;;;;;;;;5047195;28;20118;-64
2024/01/22 11:09:38;;;;;;;66.27;11.30;;;;;;;;;;5047880;28;20071;-64
2024/01/22 11:12:08;;;;;;;47.83;8.70;;;;;;;;;;5048721;28;20044;-64
2024/01/22 11:14:35;;;;;;;48.13;8.23;;;;;;;;;;5047728;28;20132;-64
2024/01/22 11:17:02;;;;;;;38.20;7.87;;;;;;;;;;5045694;28;20049;-64
2024/01/22 11:19:28;;;;;;;36.00;8.50;;;;;;;;;;5047402;28;20573;-64
2024/01/22 11:21:54;;;;;;;43.30;9.03;;;;;;;;;;5047806;28;20527;-64
2024/01/22 11:24:22;;;;;;;48.13;10.87;;;;;;;;;;5045386;28;20045;-64
2024/01/22 11:26:51;;;;;;;47.20;10.77;;;;;;;;;;5047646;28;20049;-65
2024/01/22 11:29:28;;;;;;;36.80;8.17;;;;;;;;;;5047581;28;20052;-64
2024/01/22 11:31:54;;;;;;;41.50;6.67;;;;;;;;;;5046501;28;20045;-65
2024/01/22 11:34:38;;;;;;;26.70;7.07;;;;;;;;;;5047971;28;20045;-64
2024/01/22 11:37:06;;;;;;;36.97;7.93;;;;;;;;;;5052401;28;20113;-65
2024/01/22 11:39:35;;;;;;;32.50;7.27;;;;;;;;;;5051556;28;20052;-65
2024/01/22 11:42:25;;;;;;;35.83;7.77;;;;;;;;;;5051844;28;20052;-64
2024/01/22 11:44:52;;;;;;;34.30;7.87;;;;;;;;;;5051367;28;20130;-65
2024/01/22 11:47:19;;;;;;;32.17;6.83;;;;;;;;;;5051611;28;20047;-65
2024/01/22 11:49:45;;;;;;;34.93;8.20;;;;;;;;;;5050765;28;20055;-65
2024/01/22 11:52:38;;;;;;;38.63;8.70;;;;;;;;;;5051425;28;20056;-65
2024/01/22 11:55:05;;;;;;;26.30;5.57;;;;;;;;;;5030300;28;20061;-65
2024/01/22 11:57:35;;;;;;;28.67;6.03;;;;;;;;;;5046417;28;20040;-65
2024/01/22 12:00:12;;;;;;;23.57;6.20;;;;;;;;;;5052080;28;20687;-65
2024/01/22 12:02:39;;;;;;;34.43;7.30;;;;;;;;;;5050681;28;20098;-63
2024/01/22 12:05:18;;;;;;;25.23;6.10;;;;;;;;;;5051690;28;20037;-65
2024/01/22 12:07:45;;;;;;;31.07;5.73;;;;;;;;;;5052131;28;20141;-65
2024/01/22 12:10:19;;;;;;;28.83;5.77;;;;;;;;;;5051277;28;20525;-65
2024/01/22 12:12:52;;;;;;;27.83;7.40;;;;;;;;;;5051293;28;20041;-65
2024/01/22 12:15:18;;;;;;;27.13;6.22;;;;;;;;;;5050320;28;20097;-65
2024/01/22 12:17:44;;;;;;;23.33;4.90;;;;;;;;;;5049941;28;20048;-65
2024/01/22 12:20:10;;;;;;;26.80;6.13;;;;;;;;;;5050003;28;20045;-65
2024/01/22 12:22:36;;;;;;;31.87;5.97;;;;;;;;;;5049923;28;20037;-65
2024/01/22 12:25:09;;;;;;;31.03;5.63;;;;;;;;;;5048754;28;20106;-65
2024/01/22 12:27:35;;;;;;;19.92;5.47;;;;;;;;;;5050074;28;20170;-65
2024/01/22 12:30:05;;;;;;;21.93;5.27;;;;;;;;;;5050363;28;20045;-65
2024/01/22 12:32:35;;;;;;;35.30;7.10;;;;;;;;;;5051000;28;20451;-65
2024/01/22 12:35:02;;;;;;;26.23;6.80;;;;;;;;;;5051038;28;20053;-65
2024/01/22 12:37:32;;;;;;;29.03;6.27;;;;;;;;;;5051194;28;20053;-65
2024/01/22 12:40:14;;;;;;;20.37;5.17;;;;;;;;;;5045805;28;20515;-65
2024/01/22 12:42:40;;;;;;;29.83;5.33;;;;;;;;;;5049938;28;20044;-65
2024/01/22 12:45:06;;;;;;;27.03;6.27;;;;;;;;;;5050048;28;20450;-65
2024/01/22 12:47:33;;;;;;;31.67;6.53;;;;;;;;;;5049318;28;20903;-64
2024/01/22 12:49:59;;;;;;;37.03;6.07;;;;;;;;;;5050856;28;20057;-65
2024/01/22 12:52:25;;;;;;;32.20;5.80;;;;;;;;;;5049789;28;20398;-65
2024/01/22 12:54:51;;;;;;;29.03;6.00;;;;;;;;;;5050039;28;20090;-64
2024/01/22 12:57:19;;;;;;;25.80;5.23;;;;;;;;;;5050314;28;20041;-65
2024/01/22 12:59:46;;;;;;;25.00;4.87;;;;;;;;;;5050662;28;20044;-65
2024/01/22 13:02:12;;;;;;;29.97;5.63;;;;;;;;;;5050444;28;20088;-65
2024/01/22 13:04:38;;;;;;;24.00;6.77;;;;;;;;;;5050217;28;20045;-65
2024/01/22 13:07:04;;;;;;;28.90;5.70;;;;;;;;;;5050466;28;20098;-64
2024/01/22 13:09:30;;;;;;;20.07;5.50;;;;;;;;;;5050324;28;20040;-64
2024/01/22 13:11:56;;;;;;;32.93;6.63;;;;;;;;;;5050816;28;20056;-64
2024/01/22 13:14:23;;;;;;;25.73;5.50;;;;;;;;;;5050390;28;20049;-64
2024/01/22 13:16:49;;;;;;;25.30;5.23;;;;;;;;;;5049749;28;20542;-64
2024/01/22 13:19:15;;;;;;;18.27;4.60;;;;;;;;;;5050211;28;20144;-64
2024/01/22 13:21:41;;;;;;;23.40;5.40;;;;;;;;;;5050165;28;20135;-64
2024/01/22 13:24:10;;;;;;;28.20;6.33;;;;;;;;;;5050450;28;20053;-64
2024/01/22 13:26:37;;;;;;;20.93;4.27;;;;;;;;;;5050257;28;20041;-64
2024/01/22 13:29:03;;;;;;;26.20;6.00;;;;;;;;;;5049696;28;20140;-64
2024/01/22 13:31:29;;;;;;;26.00;5.17;;;;;;;;;;5049733;28;20071;-64
2024/01/22 13:33:55;;;;;;;26.03;5.20;;;;;;;;;;5049838;28;20041;-64
2024/01/22 13:36:21;;;;;;;26.87;4.87;;;;;;;;;;5050094;28;20057;-64
2024/01/22 13:38:47;;;;;;;27.43;6.20;;;;;;;;;;5049816;28;20051;-64
2024/01/22 13:41:14;;;;;;;28.97;5.90;;;;;;;;;;5049313;28;20165;-63
2024/01/22 13:43:42;;;;;;;31.73;6.40;;;;;;;;;;5049911;28;20132;-64
2024/01/22 13:46:10;;;;;;;26.47;5.40;;;;;;;;;;5049476;28;20049;-64
2024/01/22 13:48:36;;;;;;;28.43;6.07;;;;;;;;;;5049616;28;20156;-63
2024/01/22 13:51:02;;;;;;;23.57;6.47;;;;;;;;;;5058606;28;20052;-63
2024/01/22 13:53:29;;;;;;;25.60;6.27;;;;;;;;;;5069850;28;20573;-64
2024/01/22 13:55:55;;;;;;;14.83;3.87;;;;;;;;;;5069311;28;20057;-63
2024/01/22 13:58:21;;;;;;;29.37;5.57;;;;;;;;;;5058069;28;20114;-64
2024/01/22 14:00:47;;;;;;;27.73;6.07;;;;;;;;;;5049396;28;20045;-63
2024/01/22 14:03:15;;;;;;;28.50;6.97;;;;;;;;;;5049206;28;20044;-63
2024/01/22 14:05:42;;;;;;;28.97;5.43;;;;;;;;;;5049387;28;20095;-63
2024/01/22 14:08:08;;;;;;;30.17;5.37;;;;;;;;;;5049449;28;20110;-63
2024/01/22 14:10:34;;;;;;;30.90;5.87;;;;;;;;;;5049367;28;20044;-63
2024/01/22 14:13:00;;;;;;;28.97;6.30;;;;;;;;;;5049334;28;20053;-63
2024/01/22 14:15:26;;;;;;;22.33;5.07;;;;;;;;;;5048934;28;20518;-63
2024/01/22 14:17:52;;;;;;;30.07;5.13;;;;;;;;;;5044606;28;20051;-63
2024/01/22 14:20:22;;;;;;;27.20;5.43;;;;;;;;;;5048642;28;20052;-63
2024/01/22 14:22:48;;;;;;;24.20;4.67;;;;;;;;;;5048728;28;20132;-63
2024/01/22 14:25:14;;;;;;;25.17;5.07;;;;;;;;;;5048667;28;20155;-63
2024/01/22 14:27:40;;;;;;;25.60;6.30;;;;;;;;;;5047626;28;20045;-63
2024/01/22 14:30:07;;;;;;;25.60;4.70;;;;;;;;;;5049322;28;20052;-63